Latest Weather Observations for McArthur River Mine

IDD60801

Issued at 9:35 am CST Thursday 2 October 2014 (issued every 30 minutes, with the page automatically refreshed every 10 minutes)

About weather observations | Map of weather stations | Latest weather observations for NT | Other Formats
Station Details ID: 014704 Name: MCARTHUR RIVER MINE AIRPORT Lat: -16.44 Lon: 136.08 Height: 40.0 m
Data from the previous 72 hours. | See also: Recent months at McArthur River Mine
Date/Time
CST
Temp
°C
App
Temp
°C
Dew
Point
Rel
Hum
%
Delta-T
°C
Wind Press
QNH
hPa
Press
MSL
hPa
Rain
since 9 am
mm
Dir
 
Spd
km/h
Gust
km/h
Spd
kts
Gust
kts
02/09:30am 30.6 31.4 19.0 50 7.5 SSE 13 20 7 11 1015.6 - 0.0
02/09:00am 28.1 30.4 20.6 63 5.0 SSW 9 13 5 7 1015.1 1014.8 0.0
02/08:30am 27.0 29.8 21.5 72 3.7 SW 9 13 5 7 1014.7 - 0.0
02/08:00am 25.1 28.9 23.5 91 1.1 SSW 9 11 5 6 1014.4 - 0.0
02/07:30am 23.3 27.2 22.6 96 0.5 SW 6 7 3 4 1014.2 - 0.0
02/07:00am 21.6 26.1 21.6 100 0.0 CALM 0 0 0 0 1013.7 - 0.0
02/06:30am 20.7 23.6 20.7 100 0.0 SW 6 7 3 4 1013.5 - 0.0
02/06:00am 20.9 25.1 20.9 100 0.0 SW 0 0 0 0 1013.4 1013.1 0.0
02/05:55am 21.0 25.1 20.8 99 0.1 CALM 0 2 0 1 1013.4 - 0.0
02/05:36am 21.0 25.2 21.0 100 0.0 CALM 0 7 0 4 1013.3 - 0.0
02/05:30am 21.0 25.2 21.0 100 0.0 CALM 0 0 0 0 1013.2 - 0.0
02/05:13am 20.7 24.8 20.7 100 0.0 CALM 0 0 0 0 1012.9 - 0.0
02/05:00am 20.4 24.3 20.4 100 0.0 CALM 0 0 0 0 1012.8 - 0.0
02/04:55am 20.2 24.0 20.2 100 0.0 CALM 0 0 0 0 1012.7 - 0.0
02/04:30am 20.8 24.9 20.8 100 0.0 CALM 0 0 0 0 1012.4 - 0.0
02/04:00am 21.3 25.7 21.3 100 0.0 CALM 0 0 0 0 1012.1 - 0.0
02/03:55am 21.4 25.8 21.4 100 0.0 CALM 0 0 0 0 1012.1 - 0.0
02/03:45am 21.5 26.0 21.5 100 0.0 CALM 0 0 0 0 1012.0 - 0.0
02/03:30am 21.8 25.3 21.8 100 0.0 SW 6 7 3 4 1012.0 - 0.0
02/03:00am 21.9 25.4 21.9 100 0.0 SW 6 9 3 5 1011.9 1011.6 0.0
02/02:30am 22.0 25.3 21.8 99 0.1 WSW 7 7 4 4 1011.7 - 0.0
02/02:17am 22.5 26.0 21.8 96 0.5 WSW 6 6 3 3 1011.9 - 0.0
02/02:00am 22.6 26.1 21.9 96 0.5 WSW 6 7 3 4 1012.1 - 0.0
02/01:59am 22.6 26.1 21.9 96 0.5 WSW 6 7 3 4 1012.1 - 0.0
02/01:30am 23.5 26.9 21.6 89 1.3 NNW 6 7 3 4 1012.4 - 0.0
02/01:00am 24.2 28.1 22.5 90 1.1 N 6 7 3 4 1012.7 - 0.0
02/12:37am 24.6 28.6 22.7 89 1.3 NNE 6 9 3 5 1013.0 - 0.0
02/12:30am 24.7 28.3 22.4 87 1.5 NNE 7 9 4 5 1013.0 - 0.0
02/12:23am 24.9 28.8 22.6 87 1.5 NNE 6 9 3 5 1013.1 - 0.0
02/12:00am 25.1 28.4 22.6 86 1.7 NE 9 13 5 7 1013.1 1012.8 0.0
 
Date/Time
CST
Temp
°C
App
Temp
°C
Dew
Point
Rel
Hum
%
Delta-T
°C
Wind Press
QNH
hPa
Press
MSL
hPa
Rain
since 9 am
mm
Dir
 
Spd
km/h
Gust
km/h
Spd
kts
Gust
kts
01/11:30pm 25.5 29.1 22.4 83 2.1 NNE 7 11 4 6 1013.2 - 0.0
01/11:07pm 25.9 28.8 22.4 81 2.4 NE 11 15 6 8 1013.4 - 0.0
01/11:00pm 26.0 29.3 22.5 81 2.4 NNE 9 13 5 7 1013.5 - 0.0
01/10:53pm 26.0 29.2 22.3 80 2.5 NNE 9 13 5 7 1013.5 - 0.0
01/10:30pm 26.3 29.3 21.9 77 2.9 NNE 9 15 5 8 1013.4 - 0.0
01/10:08pm 26.7 29.3 21.9 75 3.2 NNE 11 15 6 8 1013.4 - 0.0
01/10:00pm 26.9 29.1 21.9 74 3.4 NE 13 17 7 9 1013.4 - 0.0
01/09:49pm 27.0 29.1 21.7 73 3.5 NNE 13 20 7 11 1013.4 - 0.0
01/09:30pm 27.5 29.7 21.1 68 4.3 NNE 11 19 6 10 1013.3 - 0.0
01/09:00pm 28.2 28.8 20.2 62 5.3 NE 17 24 9 13 1012.9 1012.6 0.0
01/08:31pm 28.6 30.0 18.7 55 6.4 NE 9 15 5 8 1012.5 - 0.0
01/08:30pm 28.7 30.2 18.8 55 6.4 NNE 9 15 5 8 1012.5 - 0.0
01/08:16pm 28.8 30.0 18.3 53 6.7 NNE 9 17 5 9 1012.3 - 0.0
01/08:00pm 29.2 28.8 18.0 51 7.2 NE 17 24 9 13 1012.1 - 0.0
01/07:30pm 29.8 28.7 17.3 47 7.9 NE 19 28 10 15 1011.9 - 0.0
01/07:00pm 30.5 29.1 16.9 44 8.6 NNE 20 30 11 16 1011.4 - 0.0
01/06:30pm 31.3 30.2 17.2 42 9.0 NNE 19 30 10 16 1010.9 - 0.0
01/06:00pm 32.8 32.0 16.2 37 10.5 NNE 15 24 8 13 1010.4 1010.1 0.0
01/05:30pm 33.7 31.4 15.7 34 11.3 NNE 22 32 12 17 1010.2 - 0.0
01/05:00pm 35.1 33.3 14.4 29 12.8 NNE 17 32 9 17 1009.8 - 0.0
01/04:30pm 36.6 32.4 8.4 18 16.1 E 20 26 11 14 1009.9 - 0.0
01/04:00pm 36.5 33.7 8.4 18 16.0 ESE 13 20 7 11 1009.9 - 0.0
01/03:30pm 36.2 31.6 8.1 18 15.9 E 22 35 12 19 1010.2 - 0.0
01/03:00pm 37.5 32.8 9.2 18 16.4 E 24 37 13 20 1010.5 1010.2 0.0
01/02:30pm 36.4 31.5 9.8 20 15.4 E 26 39 14 21 1010.9 - 0.0
01/02:00pm 37.1 33.2 9.6 19 16.0 ESE 20 30 11 16 1011.3 - 0.0
01/01:30pm 36.2 33.5 11.8 23 14.6 ENE 17 30 9 16 1011.8 - 0.0
01/01:00pm 36.0 33.5 12.2 23 14.3 ENE 17 24 9 13 1012.2 - 0.0
01/12:30pm 35.9 33.0 12.2 24 14.2 ENE 19 30 10 16 1012.8 - 0.0
01/12:00pm 35.7 31.8 12.0 24 14.2 E 24 35 13 19 1013.3 1013.0 0.0
01/11:30am 35.1 33.5 12.7 26 13.5 NNE 13 26 7 14 1013.7 - 0.0
01/11:00am 33.5 32.2 12.5 28 12.6 ENE 11 20 6 11 1014.2 - 0.0
01/10:30am 33.3 33.1 14.8 32 11.4 ENE 9 19 5 10 1014.6 - 0.0
01/10:00am 32.2 32.4 14.3 33 10.9 N 6 19 3 10 1014.8 - 0.0
01/09:30am 30.0 31.5 17.5 47 7.9 SSW 6 9 3 5 1014.9 - 0.0
01/09:00am 27.8 30.2 18.8 58 5.8 WSW 4 9 2 5 1015.1 1014.8 0.0
01/08:30am 26.6 29.4 20.9 71 3.8 WSW 7 11 4 6 1015.3 - 0.0
01/08:00am 24.9 28.6 21.4 81 2.3 SW 4 7 2 4 1015.2 - 0.0
01/07:30am 23.1 27.6 21.5 91 1.1 CALM 0 0 0 0 1014.9 - 0.0
01/07:00am 20.9 25.1 20.9 100 0.0 CALM 0 0 0 0 1014.7 - 0.0
01/06:30am 19.9 23.2 19.9 100 0.0 WSW 2 6 1 3 1014.2 - 0.0
01/06:00am 19.8 23.4 19.8 100 0.0 CALM 0 0 0 0 1013.9 1013.6 0.0
01/05:30am 20.6 24.6 20.6 100 0.0 CALM 0 0 0 0 1013.6 - 0.0
01/05:00am 20.7 23.6 20.7 100 0.0 SW 6 7 3 4 1013.2 - 0.0
01/04:30am 20.8 23.8 20.8 100 0.0 SW 6 7 3 4 1013.1 - 0.0
01/04:00am 20.6 23.3 20.6 100 0.0 W 7 9 4 5 1012.9 - 0.0
01/03:49am 20.8 23.8 20.8 100 0.0 W 6 7 3 4 1012.8 - 0.0
01/03:39am 21.0 24.7 20.0 94 0.6 CALM 0 0 0 0 1012.8 - 0.0
01/03:30am 21.6 25.9 21.1 97 0.3 CALM 0 0 0 0 1012.9 - 0.0
01/03:00am 22.0 26.6 21.7 98 0.2 CALM 0 0 0 0 1013.0 1012.7 0.0
01/02:30am 22.5 26.9 21.3 93 0.8 CALM 0 0 0 0 1013.3 - 0.0
01/02:00am 23.0 27.4 21.4 91 1.1 CALM 0 0 0 0 1013.5 - 0.0
01/01:30am 23.6 28.2 21.7 89 1.3 CALM 0 6 0 3 1013.6 - 0.0
01/01:12am 23.9 27.8 21.8 88 1.4 N 4 7 2 4 1013.8 - 0.0
01/01:00am 24.1 27.6 22.2 89 1.3 N 7 11 4 6 1013.9 - 0.0
01/12:54am 24.2 27.7 22.1 88 1.4 NNE 7 11 4 6 1014.0 - 0.0
01/12:30am 24.5 27.8 21.8 85 1.8 NNE 7 11 4 6 1014.4 - 0.0
01/12:00am 24.7 27.3 21.2 81 2.3 NE 9 13 5 7 1014.8 1014.6 0.0
 
Date/Time
CST
Temp
°C
App
Temp
°C
Dew
Point
Rel
Hum
%
Delta-T
°C
Wind Press
QNH
hPa
Press
MSL
hPa
Rain
since 9 am
mm
Dir
 
Spd
km/h
Gust
km/h
Spd
kts
Gust
kts
30/11:30pm 25.2 26.9 20.9 77 2.8 NE 13 20 7 11 1015.0 - 0.0
30/11:00pm 25.4 26.8 20.4 74 3.3 NE 13 19 7 10 1015.0 - 0.0
30/10:30pm 25.7 26.8 20.5 73 3.4 NE 15 20 8 11 1014.9 - 0.0
30/10:00pm 25.9 27.4 20.5 72 3.5 NNE 13 20 7 11 1014.8 - 0.0
30/09:30pm 26.3 26.4 19.9 68 4.2 NNE 19 28 10 15 1014.6 - 0.0
30/09:00pm 26.7 27.2 20.1 67 4.3 NNE 17 32 9 17 1014.4 1014.2 0.0
30/08:30pm 27.1 27.5 19.9 64 4.7 NNE 17 24 9 13 1014.1 - 0.0
30/08:00pm 27.6 27.8 19.4 61 5.3 NNE 17 24 9 13 1013.7 - 0.0
30/07:47pm 27.7 27.4 19.2 60 5.5 NNE 19 28 10 15 1013.7 - 0.0
30/07:37pm 28.0 27.7 19.2 58 5.7 NNE 19 28 10 15 1013.6 - 0.0
30/07:30pm 28.1 27.7 18.8 57 6.0 NNE 19 30 10 16 1013.4 - 0.0
30/07:00pm 28.7 27.8 18.2 53 6.7 NNE 20 32 11 17 1013.0 - 0.0
30/06:30pm 29.5 28.6 18.3 51 7.2 NNE 20 30 11 16 1012.5 - 0.0
30/06:00pm 30.8 29.3 16.8 43 8.8 NNE 20 28 11 15 1012.0 1011.8 0.0
30/05:30pm 31.9 30.0 15.8 38 10.0 NE 20 30 11 16 1011.6 - 0.0
30/05:00pm 33.0 30.9 14.6 33 11.3 NE 19 28 10 15 1011.3 - 0.0
30/04:30pm 33.8 31.9 14.3 31 12.0 NNE 17 28 9 15 1011.2 - 0.0
30/04:00pm 34.7 32.6 14.6 30 12.4 NNE 19 32 10 17 1011.0 - 0.0
30/03:30pm 34.0 32.0 14.0 30 12.2 NE 17 30 9 16 1011.2 - 0.0
30/03:00pm 34.5 32.1 13.9 29 12.6 NNE 19 32 10 17 1011.3 1011.1 0.0
30/02:30pm 34.9 33.4 14.2 28 12.8 E 15 24 8 13 1011.5 - 0.0
30/02:00pm 34.7 32.8 15.1 31 12.2 NE 19 28 10 15 1011.8 - 0.0
30/01:30pm 34.6 33.4 16.0 33 11.7 NE 17 30 9 16 1012.1 - 0.0
30/01:00pm 35.3 33.9 15.6 31 12.4 NE 17 28 9 15 1012.6 - 0.0
30/12:30pm 33.1 31.5 15.1 33 11.2 N 17 24 9 13 1013.1 - 0.0
30/12:00pm 33.9 32.6 14.9 32 11.8 NE 15 28 8 15 1013.6 1013.4 0.0
30/11:30am 33.5 31.9 14.0 30 11.9 NNE 15 24 8 13 1014.1 - 0.0
30/11:00am 33.6 31.2 12.6 28 12.6 NNE 17 26 9 14 1014.5 - 0.0
30/10:30am 33.1 30.7 13.7 31 11.8 NE 19 24 10 13 1014.8 - 0.0
30/10:00am 32.0 32.3 17.1 41 9.5 N 11 20 6 11 1015.0 - 0.0
30/09:30am 29.5 31.1 18.3 51 7.2 W 7 11 4 6 1015.2 - 0.0
30/09:00am 27.8 31.2 20.9 66 4.6 NW 4 9 2 5 1015.4 1015.2 0.0
30/08:30am 26.5 30.1 22.3 78 2.8 NW 7 11 4 6 1015.3 - 0.0
30/08:00am 25.3 29.6 23.7 91 1.1 W 7 11 4 6 1015.2 - 0.0
30/07:30am 24.2 29.9 23.7 97 0.3 CALM 0 0 0 0 1015.0 - 0.0
30/07:00am 22.5 - 22.7 - - S 4 6 2 3 1014.5 - 0.0
30/06:31am 21.6 26.1 21.6 100 0.0 CALM 0 0 0 0 1014.1 - 0.0
30/06:30am 21.7 26.3 21.7 100 0.0 CALM 0 0 0 0 1014.1 - 0.0
30/06:16am 21.7 25.5 21.7 100 0.0 SSE 4 6 2 3 1014.0 - 0.0
30/06:00am 22.0 26.0 22.0 100 0.0 SE 4 6 2 3 1013.9 1013.7 0.0
30/05:40am 22.4 26.2 22.4 100 0.0 SSE 6 6 3 3 1013.7 - 0.0
30/05:30am 22.6 26.9 22.6 100 0.0 SE 4 6 2 3 1013.7 - 0.0
30/05:24am 22.6 26.5 22.6 100 0.0 SE 6 9 3 5 1013.6 - 0.0
30/05:06am 23.0 28.3 23.0 100 0.0 CALM 0 0 0 0 1013.4 - 0.0
30/05:00am 23.1 28.4 23.1 100 0.0 CALM 0 0 0 0 1013.4 - 0.0
30/04:55am 23.1 28.4 23.1 100 0.0 CALM 0 0 0 0 1013.4 - 0.0
30/04:44am 23.3 28.7 23.3 100 0.0 CALM 0 0 0 0 1013.3 - 0.0
30/04:30am 23.5 29.1 23.5 100 0.0 CALM 0 0 0 0 1013.2 - 0.0
30/04:25am 23.5 29.1 23.5 100 0.0 CALM 0 0 0 0 1013.2 - 0.0
30/04:00am 23.6 28.8 23.6 100 0.0 NE 2 6 1 3 1013.2 - 0.0
30/03:42am 23.5 29.1 23.5 100 0.0 CALM 0 0 0 0 1013.1 - 0.0
30/03:31am 23.3 28.4 23.3 100 0.0 N 2 6 1 3 1013.1 - 0.0
30/03:30am 23.3 28.4 23.3 100 0.0 N 2 6 1 3 1013.1 - 0.0
30/03:00am 23.2 26.9 23.2 100 0.0 NE 9 11 5 6 1012.9 1012.7 0.0
30/02:44am 23.4 27.2 23.4 100 0.0 NE 9 13 5 7 1012.7 - 0.0
30/02:30am 23.6 26.7 23.6 100 0.0 NE 13 20 7 11 1012.8 - 0.0
30/02:26am 23.6 26.4 23.6 100 0.0 NE 15 20 8 11 1012.8 - 0.0
30/02:00am 23.6 27.1 23.6 100 0.0 ENE 11 15 6 8 1013.0 - 0.0
30/01:32am 24.1 27.7 23.8 98 0.2 NE 11 15 6 8 1013.2 - 0.0
30/01:30am 24.1 27.8 23.9 99 0.1 NE 11 15 6 8 1013.2 - 0.0
30/01:12am 24.3 27.8 23.6 96 0.5 NE 11 19 6 10 1013.2 - 0.0
30/01:00am 24.5 27.3 23.6 95 0.6 NNE 15 20 8 11 1013.3 - 0.0
30/12:30am 24.7 27.9 23.7 94 0.7 NNE 13 20 7 11 1013.4 - 0.0
30/12:00am 24.9 27.6 23.5 92 1.0 NNE 15 24 8 13 1013.7 1013.5 0.0
 
Date/Time
CST
Temp
°C
App
Temp
°C
Dew
Point
Rel
Hum
%
Delta-T
°C
Wind Press
QNH
hPa
Press
MSL
hPa
Rain
since 9 am
mm
Dir
 
Spd
km/h
Gust
km/h
Spd
kts
Gust
kts
29/11:30pm 25.2 28.0 23.6 91 1.1 NNE 15 26 8 14 1013.9 - 0.0
29/11:00pm 25.5 27.9 23.6 89 1.3 NE 17 30 9 16 1014.0 - 0.0
29/10:30pm 25.8 27.2 22.9 84 2.0 NNE 20 30 11 16 1014.0 - 0.0
29/10:00pm 26.2 27.4 22.1 78 2.8 NNE 19 28 10 15 1014.2 - 0.0
29/09:41pm 26.5 27.7 21.5 74 3.3 NNE 17 28 9 15 1014.3 - 0.0
29/09:30pm 26.7 27.7 21.0 71 3.8 NE 17 24 9 13 1014.2 - 0.0
29/09:28pm 26.8 27.8 21.1 71 3.8 NE 17 28 9 15 1014.2 - 0.0
29/09:00pm 27.2 28.1 20.0 64 4.7 NE 15 26 8 14 1013.9 1013.7 0.0
29/08:30pm 27.7 28.0 20.8 66 4.6 NNE 20 30 11 16 1013.5 - 0.0
29/08:00pm 28.4 28.7 19.6 59 5.7 NNE 17 22 9 12 1013.1 - 0.0
29/07:30pm 29.2 28.1 17.7 50 7.3 NNE 20 28 11 15 1012.7 - 0.0
29/07:00pm 30.0 28.1 15.7 42 8.8 NNE 20 32 11 17 1012.1 - 0.0
29/06:30pm 30.7 28.9 15.5 39 9.4 NNE 19 28 10 15 1011.8 - 0.0
29/06:00pm 31.7 29.3 14.4 35 10.6 NNE 20 30 11 16 1011.3 1011.1 0.0
29/05:30pm 32.8 31.0 13.4 30 11.7 N 15 28 8 15 1011.0 - 0.0
29/05:00pm 33.5 31.0 13.5 29 12.1 NNE 19 28 10 15 1010.6 - 0.0
29/04:30pm 33.9 31.5 13.9 30 12.2 ENE 19 24 10 13 1010.4 - 0.0
29/04:00pm 34.6 32.6 14.0 29 12.6 NNE 17 26 9 14 1010.1 - 0.0
29/03:30pm 33.8 31.6 13.3 29 12.4 NE 17 28 9 15 1010.2 - 0.0
29/03:00pm 34.6 32.3 14.0 29 12.7 N 19 30 10 16 1010.2 1010.0 0.0
29/02:30pm 33.8 32.0 13.3 29 12.4 N 15 24 8 13 1010.5 - 0.0
29/02:00pm 34.2 31.9 13.1 28 12.8 NNE 17 26 9 14 1010.8 - 0.0
29/01:30pm 34.7 32.8 11.8 25 13.6 ENE 13 26 7 14 1011.3 - 0.0
29/01:00pm 33.8 32.1 14.8 32 11.8 NNE 17 24 9 13 1011.8 - 0.0
29/12:30pm 33.3 30.4 12.3 28 12.5 NE 19 30 10 16 1012.4 - 0.0
29/12:00pm 32.9 30.2 13.5 30 11.7 NE 20 35 11 19 1013.0 1012.8 0.0
29/11:30am 33.7 30.7 12.1 27 12.8 NNE 19 30 10 16 1013.4 - 0.0
29/11:00am 33.0 30.1 9.7 24 13.3 NNE 15 30 8 16 1013.7 - 0.0
29/10:58am 33.1 30.6 11.0 26 12.9 NE 15 30 8 16 1013.8 - 0.0
29/10:41am 32.2 30.7 11.9 29 12.0 NE 11 17 6 9 1013.9 - 0.0
29/10:30am 31.9 30.7 11.7 29 11.8 NNE 9 17 5 9 1013.9 - 0.0
29/10:00am 30.6 30.8 13.0 34 10.5 N 4 7 2 4 1014.1 - 0.0

Other Formats:

Comma delimited format used in spreadsheet applications
http://www.bom.gov.au/fwo/IDD60801/IDD60801.94239.axf

JavaScript Object Notation format (JSON) in row-major order
http://www.bom.gov.au/fwo/IDD60801/IDD60801.94239.json